Weipa Airport
YBWP : now visible

Airfield :











YOU CAN JOIN US ON...

 
LOGIN :

Register | Disclaimer

   EN    FR    IT 

 









Legend :    VFR   Marginal VFR   IFR   Intensive IFR   Very Intensive IFR
Visi :
Ceiling :
>= 8 km
>= 3000ft
5 to 8 km
1000 to 3000 ft
1500m to 5 km
500 to 1000 ft
800 to 1500m
200 to 500 ft
< 800m
< 200 ft
Symbols :   Thunderstorms  Fog  Heavy snow  Heavy precipitations  Wind > 20 kt






- Airport Elevation : 63 ft
- IATA code : WEI


YBWP - Weipa

CURRENT METAR :
  • 160632Z AUTO 35010KT 9999 +SHRA SCT035 SCT058 SCT085 23/21 Q1006

EXPIRED METARs :
  • 160600Z AUTO 13013KT 4500 +SHRA SCT012 BKN022 BKN028 26/23 Q1006
  • 160554Z AUTO 15008KT 130V230 4700 SHRA BKN022 BKN028 27/24 Q1006
  • 160502Z AUTO 27009KT 9999 -SHRA SCT014 BKN023 BKN032 30/25 Q1005 RESHRA
  • 160400Z AUTO 29009KT 9999 // SCT048 35/23 Q1005

TAF N/A



MET'MAP, your aeronautical weather chart ! - Copyright ORBIFLY December 2007 - Disclaimer

ORBIFLY MET'MAP TEAM :

Programming & Development : Alexandra Zaïnal
Concept & original design : Baudouin d'Aumeries
Assistance for programming : Marc-Olivier Méhu
Technical & hardware support : Manuel Goepfert

Contact : metmap@orbifly.com




SOURCES & CREDITS :

   NOAA       Earth
Advisory